createdAt,value
2023-04-09T00:02:11.682Z,24.80
2023-04-09T00:12:13.850Z,19.80
2023-04-09T00:17:15.117Z,23.80
2023-04-09T00:22:16.084Z,20.20
2023-04-09T00:27:17.092Z,21.60
2023-04-09T00:32:18.055Z,24.00
2023-04-09T00:37:19.071Z,25.60
2023-04-09T00:42:21.037Z,24.80
2023-04-09T00:47:22.035Z,21.70
2023-04-09T00:52:24.086Z,21.90
2023-04-09T00:57:25.248Z,26.00
2023-04-09T01:02:27.776Z,22.60
2023-04-09T01:07:59.100Z,20.90
2023-04-09T01:13:12.962Z,22.20
2023-04-09T01:18:24.351Z,27.70
2023-04-09T01:24:01.197Z,22.60
2023-04-09T01:29:11.560Z,21.40
2023-04-09T01:34:14.223Z,21.40
2023-04-09T01:39:15.614Z,22.50
2023-04-09T01:44:17.593Z,29.80
2023-04-09T01:49:19.322Z,26.60
2023-04-09T01:54:20.558Z,24.10
2023-04-09T01:59:21.789Z,25.20
2023-04-09T02:04:24.186Z,22.30
2023-04-09T02:09:30.380Z,31.60
2023-04-09T02:14:32.777Z,40.20
2023-04-09T02:19:45.402Z,37.40
2023-04-09T02:24:47.820Z,32.30
2023-04-09T02:29:48.804Z,30.20
2023-04-09T02:34:49.780Z,37.80
2023-04-09T02:39:50.814Z,25.90
2023-04-09T02:44:52.003Z,28.60
2023-04-09T02:49:53.272Z,27.70
2023-04-09T02:54:54.854Z,29.60
2023-04-09T02:59:55.851Z,34.60
2023-04-09T03:04:56.868Z,31.20
2023-04-09T03:09:58.585Z,26.60
2023-04-09T03:14:59.650Z,32.20
2023-04-09T03:20:00.687Z,25.60
2023-04-09T03:25:09.120Z,32.70
2023-04-09T03:30:11.429Z,26.30
2023-04-09T03:35:16.868Z,24.10
2023-04-09T03:40:18.806Z,17.60
2023-04-09T03:45:20.768Z,23.60
2023-04-09T03:50:34.828Z,28.10
2023-04-09T03:55:37.191Z,34.50
2023-04-09T04:00:40.987Z,29.10
2023-04-09T04:06:03.052Z,33.00
2023-04-09T04:11:10.549Z,26.80
2023-04-09T04:16:17.794Z,28.60
2023-04-09T04:21:19.533Z,38.60
2023-04-09T04:26:28.111Z,29.40
2023-04-09T04:31:29.346Z,29.10
2023-04-09T04:36:32.074Z,29.80
2023-04-09T04:41:33.452Z,34.10
2023-04-09T04:46:57.606Z,37.00
2023-04-09T04:51:58.693Z,32.20
2023-04-09T04:57:00.884Z,45.70
2023-04-09T05:02:11.815Z,38.10
2023-04-09T05:07:29.055Z,25.50
2023-04-09T05:12:31.403Z,36.50
2023-04-09T05:17:32.854Z,40.10
2023-04-09T05:22:35.579Z,38.70
2023-04-09T05:27:37.432Z,32.30
2023-04-09T05:32:39.565Z,34.80
2023-04-09T05:37:41.671Z,33.80
2023-04-09T05:42:43.072Z,27.40
2023-04-09T05:47:52.889Z,27.70
2023-04-09T05:52:56.635Z,24.60
2023-04-09T05:58:02.059Z,24.50
2023-04-09T06:03:04.170Z,26.40
2023-04-09T06:08:05.799Z,26.60
2023-04-09T06:13:06.823Z,22.90
2023-04-09T06:18:07.926Z,24.50
2023-04-09T06:23:08.991Z,25.10
2023-04-09T06:28:10.847Z,28.70
2023-04-09T06:33:11.899Z,24.50
2023-04-09T06:38:12.982Z,24.50
2023-04-09T06:43:13.901Z,26.20
2023-04-09T06:48:22.442Z,25.20
2023-04-09T06:53:23.394Z,27.50
2023-04-09T06:58:24.786Z,25.40
2023-04-09T07:03:27.259Z,23.80
2023-04-09T07:08:28.770Z,22.80
2023-04-09T07:13:30.651Z,24.10
2023-04-09T07:18:31.714Z,23.40
2023-04-09T07:23:36.549Z,23.40
2023-04-09T07:28:39.873Z,23.90
2023-04-09T07:33:41.638Z,23.80
2023-04-09T07:38:44.232Z,22.60
2023-04-09T07:43:45.391Z,24.90
2023-04-09T07:48:48.300Z,23.20
2023-04-09T07:53:49.489Z,22.90
2023-04-09T07:58:50.778Z,22.00
2023-04-09T08:03:52.140Z,22.30
2023-04-09T08:08:53.529Z,20.20
2023-04-09T08:13:55.754Z,11.40
2023-04-09T08:18:56.988Z,16.90
2023-04-09T08:24:03.602Z,23.70
2023-04-09T08:29:04.818Z,21.50
2023-04-09T08:34:06.043Z,23.20
2023-04-09T08:39:06.983Z,25.80
2023-04-09T08:44:07.937Z,22.30
2023-04-09T08:49:10.126Z,22.00
2023-04-09T08:54:15.915Z,18.50
2023-04-09T08:59:20.557Z,27.80
2023-04-09T09:04:21.675Z,24.20
2023-04-09T09:09:22.971Z,29.20
2023-04-09T09:14:23.925Z,26.00
2023-04-09T09:19:24.993Z,25.30
2023-04-09T09:24:26.778Z,25.20
2023-04-09T09:29:28.308Z,25.00
2023-04-09T09:34:29.532Z,26.40
2023-04-09T09:39:43.993Z,27.40
2023-04-09T09:44:45.009Z,23.80
2023-04-09T09:49:49.002Z,24.40
2023-04-09T09:54:52.628Z,27.10
2023-04-09T10:00:00.005Z,28.70
2023-04-09T10:05:01.273Z,29.60
2023-04-09T10:10:12.702Z,29.10
2023-04-09T10:15:14.275Z,21.90
2023-04-09T10:20:31.992Z,26.60
2023-04-09T10:25:33.606Z,27.20
2023-04-09T10:30:36.017Z,27.10
2023-04-09T10:35:37.157Z,25.30
2023-04-09T10:40:48.722Z,25.10
2023-04-09T10:45:53.782Z,27.10
2023-04-09T10:50:54.898Z,20.30
2023-04-09T10:55:55.957Z,26.50
2023-04-09T11:01:00.985Z,28.70
2023-04-09T11:06:08.486Z,29.30
2023-04-09T11:11:09.484Z,20.10
2023-04-09T11:16:11.184Z,28.40
2023-04-09T11:21:12.909Z,23.90
2023-04-09T11:26:13.884Z,27.10
2023-04-09T11:31:15.817Z,26.20
2023-04-09T11:36:17.204Z,23.80
2023-04-09T11:41:18.165Z,28.70
2023-04-09T11:46:21.091Z,22.10
2023-04-09T11:51:22.910Z,24.60
2023-04-09T11:56:24.601Z,24.60
2023-04-09T12:01:31.842Z,25.70
2023-04-09T12:06:39.495Z,20.50
2023-04-09T12:11:43.623Z,25.40
2023-04-09T12:16:44.873Z,27.70
2023-04-09T12:21:52.233Z,22.30
2023-04-09T12:26:53.297Z,23.00
2023-04-09T12:31:54.343Z,24.00
2023-04-09T12:36:55.405Z,20.60
2023-04-09T12:41:57.057Z,24.20
2023-04-09T12:46:58.146Z,22.40
2023-04-09T12:51:59.283Z,20.40
2023-04-09T12:57:00.402Z,20.30
2023-04-09T13:02:01.581Z,19.10
2023-04-09T13:07:02.710Z,17.00
2023-04-09T13:12:03.665Z,17.70
2023-04-09T13:17:05.143Z,15.70
2023-04-09T13:22:08.176Z,15.50
2023-04-09T13:27:10.405Z,19.90
2023-04-09T13:32:11.527Z,15.70
2023-04-09T13:37:12.456Z,14.40
2023-04-09T13:42:14.524Z,14.30
2023-04-09T13:47:16.810Z,14.20
2023-04-09T13:52:17.849Z,13.10
2023-04-09T13:57:19.082Z,13.10
2023-04-09T14:02:20.214Z,7.50
2023-04-09T14:07:21.263Z,14.40
2023-04-09T14:12:22.217Z,14.10
2023-04-09T14:17:23.252Z,12.40
2023-04-09T14:22:25.741Z,13.90
2023-04-09T14:27:26.848Z,12.10
2023-04-09T14:32:27.891Z,10.10
2023-04-09T14:37:29.117Z,13.20
2023-04-09T14:42:30.123Z,9.10
2023-04-09T14:47:31.241Z,13.10
2023-04-09T14:52:32.518Z,12.10
2023-04-09T14:57:33.448Z,10.20
2023-04-09T15:02:34.804Z,11.80
2023-04-09T15:07:36.298Z,14.40
2023-04-09T15:12:37.253Z,11.70
2023-04-09T15:17:38.289Z,12.10
2023-04-09T15:22:39.952Z,10.00
2023-04-09T15:27:40.914Z,13.00
2023-04-09T15:32:41.884Z,14.00
2023-04-09T15:37:42.884Z,17.30
2023-04-09T15:42:44.086Z,16.90
2023-04-09T15:47:45.733Z,15.70
2023-04-09T15:52:48.288Z,12.70
2023-04-09T15:57:49.537Z,13.60
2023-04-09T16:02:52.332Z,13.90
2023-04-09T16:07:53.306Z,15.70
2023-04-09T16:12:54.247Z,16.40
2023-04-09T16:17:56.059Z,14.60
2023-04-09T16:22:57.123Z,18.90
2023-04-09T16:27:58.232Z,19.70
2023-04-09T16:32:59.199Z,14.60
2023-04-09T16:38:00.488Z,13.30
2023-04-09T16:43:01.939Z,8.10
2023-04-09T16:48:05.606Z,13.80
2023-04-09T16:53:07.332Z,14.80
2023-04-09T16:58:08.413Z,20.60
2023-04-09T17:03:09.531Z,17.50
2023-04-09T17:08:11.198Z,16.80
2023-04-09T17:13:12.169Z,17.70
2023-04-09T17:18:13.091Z,20.70
2023-04-09T17:23:14.248Z,18.40
2023-04-09T17:28:16.986Z,19.30
2023-04-09T17:33:19.742Z,18.80
2023-04-09T17:38:20.835Z,18.20
2023-04-09T17:43:22.082Z,19.10
2023-04-09T17:48:23.104Z,23.50
2023-04-09T17:53:24.190Z,23.70
2023-04-09T17:58:25.772Z,23.10
2023-04-09T18:03:26.915Z,25.60
2023-04-09T18:08:28.199Z,23.40
2023-04-09T18:13:29.192Z,25.10
2023-04-09T18:18:30.520Z,25.90
2023-04-09T18:23:32.222Z,25.10
2023-04-09T18:28:33.927Z,24.50
2023-04-09T18:33:34.882Z,20.50
2023-04-09T18:38:36.335Z,20.10
2023-04-09T18:43:37.320Z,28.60
2023-04-09T18:48:38.454Z,29.80
2023-04-09T18:53:40.430Z,26.40
2023-04-09T18:58:41.508Z,21.70
2023-04-09T19:03:44.190Z,25.20
2023-04-09T19:08:46.713Z,25.80
2023-04-09T19:13:47.676Z,26.30
2023-04-09T19:18:48.966Z,21.80
2023-04-09T19:23:50.052Z,16.70
2023-04-09T19:28:51.865Z,25.40
2023-04-09T19:33:53.017Z,25.40
2023-04-09T19:38:54.144Z,25.20
2023-04-09T19:43:55.485Z,20.00
2023-04-09T19:48:56.407Z,27.30
2023-04-09T19:53:57.353Z,24.60
2023-04-09T19:58:58.306Z,24.70
2023-04-09T20:03:59.298Z,16.00
2023-04-09T20:09:01.188Z,25.70
2023-04-09T20:14:03.167Z,20.60
2023-04-09T20:19:04.086Z,24.80
2023-04-09T20:24:06.072Z,22.30
2023-04-09T20:29:07.012Z,25.60
2023-04-09T20:34:07.921Z,27.70
2023-04-09T20:39:10.899Z,25.00
2023-04-09T20:44:12.039Z,26.50
2023-04-09T20:49:13.139Z,21.50
2023-04-09T20:54:14.773Z,19.70
2023-04-09T20:59:16.536Z,27.20
2023-04-09T21:04:17.746Z,32.60
2023-04-09T21:09:19.056Z,26.70
2023-04-09T21:14:25.877Z,23.00
2023-04-09T21:19:26.906Z,23.60
2023-04-09T21:24:27.947Z,23.20
2023-04-09T21:29:29.040Z,23.80
2023-04-09T21:34:30.770Z,25.90
2023-04-09T21:39:31.789Z,23.10
2023-04-09T21:44:33.940Z,25.40
2023-04-09T21:49:39.684Z,18.20
2023-04-09T21:54:45.939Z,23.30
2023-04-09T22:00:01.199Z,29.40
2023-04-09T22:05:07.857Z,26.10
2023-04-09T22:10:09.392Z,18.40
2023-04-09T22:15:11.516Z,26.40
2023-04-09T22:20:17.385Z,27.70
2023-04-09T22:25:22.303Z,27.70
2023-04-09T22:30:23.818Z,25.40
2023-04-09T22:35:24.961Z,19.30
2023-04-09T22:40:28.800Z,28.60
2023-04-09T22:45:31.473Z,23.00
2023-04-09T22:50:32.976Z,27.50
2023-04-09T22:55:33.934Z,19.00
2023-04-09T23:01:00.579Z,23.90
2023-04-09T23:06:01.559Z,26.70
2023-04-09T23:11:04.654Z,27.90
2023-04-09T23:16:10.311Z,27.90
2023-04-09T23:21:12.434Z,27.20
2023-04-09T23:26:13.356Z,27.20
2023-04-09T23:31:14.709Z,24.20
2023-04-09T23:36:15.841Z,28.10
2023-04-09T23:41:17.618Z,23.70
2023-04-09T23:46:19.415Z,25.00
2023-04-09T23:51:22.119Z,21.70
2023-04-09T23:56:23.170Z,28.20
